Hlavní strana
METAR-TAF:

METAR-TAF

Letiště :

Letiště Plzeň Líně

Plzeň, Česká republika

zeměpisná šířka: 49-40-31N, zeměpisná délka: 13-16-29E, výška: 362 m

Aktuální stav počasí

Zpráva byla vytvořena před 1 hodinou a 2 minutami, v 15:00 UTC
vítr z různých směrů 2 kt
Teplota 18°C
Vlhkost vzduchu 88%
Tlak 1017 hPa
Viditelnost 10 km a více
Skoro jasno ve výšce 3500 ft
Zataženo ve výšce 8700 ft
slabý déšť,

METAR: LKLN 271500Z AUTO VRB02KT 9999 -RA FEW035 OVC087 18/16 Q1017

Čas: 18:02 (16:02 UTC)


TAF: chybějící

Stav a předpovědi počasí z více než 4 000 letišť (zprávy METAR a TAF).

Červené a žluté tečky na mapě představují dostupné meteorologické stanice.

Když kurzor umístíte na tečku, zobrazí se název stanice.

Pak kliknutím zobrazíte stav a předpověď počasí.

Chcete-li změnit mapu, kliknutím na zelené tlačítko se znaménkem +mapu přiblížíte, kliknutím na zelené tlačítko se znaménkem – mapu oddálíte a kliknutím na zelené šipky přejdete na sousední mapy.


METAR-TAF: